Time;durP1;ratioP1;P1;durP2;ratioP2;P2;SDS_P1;SDS_P2;PMS_P1;PMS_P2;Temp;Humidity;BMP_temperature;BMP_pressure;BME280_temperature;BME280_humidity;BME280_pressure;Samples;Min_cycle;Max_cycle;Signal;HPM_P1;HPM_P2
2023/12/29 00:00:51;;;;;;;62.40;31.70;;;-2.60;99.90;;;;;;4193381;28;20269;-59
2023/12/29 00:02:52;;;;;;;59.87;29.97;;;-2.60;99.90;;;;;;4192144;28;20286;-58
2023/12/29 00:04:54;;;;;;;61.40;28.63;;;-2.60;99.90;;;;;;4192673;28;20265;-57
2023/12/29 00:06:55;;;;;;;62.23;30.03;;;-2.60;99.90;;;;;;4192441;28;20611;-55
2023/12/29 00:08:56;;;;;;;59.30;29.77;;;-2.60;99.90;;;;;;4192256;28;21099;-59
2023/12/29 00:10:58;;;;;;;57.37;27.87;;;-2.60;99.90;;;;;;4176047;28;20328;-60
2023/12/29 00:12:59;;;;;;;64.33;30.90;;;-2.60;99.90;;;;;;4175408;28;20274;-59
2023/12/29 00:15:01;;;;;;;68.33;31.47;;;-2.60;99.90;;;;;;4192749;28;20347;-57
2023/12/29 00:17:03;;;;;;;62.50;30.13;;;-2.60;99.90;;;;;;4192062;28;20269;-58
2023/12/29 00:19:04;;;;;;;64.17;31.27;;;-2.60;99.90;;;;;;4193455;28;20323;-55
2023/12/29 00:21:06;;;;;;;65.57;32.97;;;-2.50;99.90;;;;;;4192034;28;20266;-56
2023/12/29 00:23:07;;;;;;;66.80;31.13;;;-2.50;99.90;;;;;;4193410;28;20285;-55
2023/12/29 00:25:08;;;;;;;67.23;33.73;;;-2.50;99.90;;;;;;4192230;28;20323;-57
2023/12/29 00:27:09;;;;;;;64.77;31.93;;;-2.50;99.90;;;;;;4193492;28;20354;-59
2023/12/29 00:29:11;;;;;;;70.27;34.03;;;-2.40;99.90;;;;;;4190323;28;20269;-57
2023/12/29 00:31:16;;;;;;;70.30;34.37;;;-2.40;99.90;;;;;;4193486;28;20269;-58
2023/12/29 00:33:17;;;;;;;68.00;32.57;;;-2.40;99.90;;;;;;4191975;28;20352;-58
2023/12/29 00:35:18;;;;;;;66.43;31.67;;;-2.40;99.90;;;;;;4192437;28;20281;-59
2023/12/29 00:37:19;;;;;;;61.97;30.23;;;-2.50;99.90;;;;;;4191987;28;20787;-56
2023/12/29 00:39:28;;;;;;;57.40;28.33;;;-2.50;99.90;;;;;;4191947;28;20277;-60
2023/12/29 00:41:29;;;;;;;50.63;25.97;;;-2.50;99.90;;;;;;4191822;28;20777;-55
2023/12/29 00:43:31;;;;;;;52.70;25.67;;;-2.50;99.90;;;;;;4192205;28;20270;-57
2023/12/29 00:45:35;;;;;;;54.37;26.90;;;-2.60;99.90;;;;;;4192043;28;20656;-58
2023/12/29 00:47:37;;;;;;;54.47;24.63;;;-2.60;99.90;;;;;;4191283;28;20261;-57
2023/12/29 00:49:41;;;;;;;48.20;24.23;;;-2.60;99.90;;;;;;4192468;28;20274;-59
2023/12/29 00:51:43;;;;;;;50.20;25.10;;;-2.60;99.90;;;;;;4191175;28;20265;-58
2023/12/29 00:53:44;;;;;;;49.10;24.33;;;-2.60;99.90;;;;;;4195552;28;20291;-58
2023/12/29 00:55:45;;;;;;;49.60;23.80;;;-2.60;99.90;;;;;;4194472;28;20588;-59
2023/12/29 00:57:47;;;;;;;48.27;24.23;;;-2.60;99.90;;;;;;4196492;28;20383;-58
2023/12/29 00:59:48;;;;;;;47.90;24.30;;;-2.60;99.90;;;;;;4194523;28;20850;-58
2023/12/29 01:01:49;;;;;;;51.23;25.27;;;-2.60;99.90;;;;;;4195897;28;20661;-59
2023/12/29 01:03:54;;;;;;;54.27;25.07;;;-2.60;99.90;;;;;;4194803;28;20338;-56
2023/12/29 01:05:55;;;;;;;47.50;24.10;;;-2.60;99.90;;;;;;4195740;28;20273;-57
2023/12/29 01:07:57;;;;;;;48.90;25.90;;;-2.60;99.90;;;;;;4194060;28;20646;-56
2023/12/29 01:09:59;;;;;;;56.40;25.30;;;-2.60;99.90;;;;;;4195948;28;20277;-59
2023/12/29 01:12:00;;;;;;;50.87;25.67;;;-2.60;99.90;;;;;;4194786;28;20266;-57
2023/12/29 01:14:01;;;;;;;48.50;25.40;;;-2.60;99.90;;;;;;4195895;28;21256;-59
2023/12/29 01:16:03;;;;;;;55.60;26.30;;;-2.60;99.90;;;;;;4194795;28;20297;-57
2023/12/29 01:18:04;;;;;;;50.60;26.27;;;-2.60;99.90;;;;;;4194732;28;20338;-57
2023/12/29 01:20:06;;;;;;;61.70;26.03;;;-2.60;99.90;;;;;;4194900;28;20330;-58
2023/12/29 01:22:07;;;;;;;64.80;31.93;;;-2.70;99.90;;;;;;4194412;28;20269;-58
2023/12/29 01:24:08;;;;;;;62.30;29.00;;;-2.70;99.90;;;;;;4194760;28;20323;-58
2023/12/29 01:26:09;;;;;;;66.90;28.70;;;-2.70;99.90;;;;;;4194524;28;20311;-56
2023/12/29 01:28:11;;;;;;;56.57;28.27;;;-2.70;99.90;;;;;;4195350;28;20315;-57
2023/12/29 01:30:12;;;;;;;61.07;30.17;;;-2.80;99.90;;;;;;4194305;28;20729;-58
2023/12/29 01:32:14;;;;;;;64.13;29.13;;;-2.80;99.90;;;;;;4195619;28;20394;-57
2023/12/29 01:34:15;;;;;;;63.60;29.17;;;-2.80;99.90;;;;;;4194079;28;20265;-58
2023/12/29 01:36:19;;;;;;;55.40;28.27;;;-2.80;99.90;;;;;;4195152;28;20363;-58
2023/12/29 01:38:20;;;;;;;59.03;28.17;;;-2.80;99.90;;;;;;4193675;28;20269;-58
2023/12/29 01:40:21;;;;;;;64.60;29.00;;;-2.80;99.90;;;;;;4195626;28;20315;-54
2023/12/29 01:42:22;;;;;;;62.70;30.43;;;-2.80;99.90;;;;;;4194911;28;20265;-56
2023/12/29 01:44:24;;;;;;;59.07;28.47;;;-2.90;99.90;;;;;;4195332;28;20327;-57
2023/12/29 01:46:43;;;;;;;62.43;30.57;;;-2.90;99.90;;;;;;4194564;28;20257;-57
2023/12/29 01:48:44;;;;;;;54.43;27.67;;;-2.90;99.90;;;;;;4194672;28;20261;-58
2023/12/29 01:50:45;;;;;;;53.67;25.90;;;-2.90;99.90;;;;;;4193980;28;20342;-56
2023/12/29 01:52:49;;;;;;;59.20;28.23;;;-2.90;99.90;;;;;;4194754;28;20890;-59
2023/12/29 01:54:52;;;;;;;51.20;26.13;;;-2.90;99.90;;;;;;4194488;28;20362;-58
2023/12/29 01:56:56;;;;;;;61.30;27.00;;;-3.00;99.90;;;;;;4193898;28;20277;-58
2023/12/29 01:58:57;;;;;;;54.50;26.43;;;-3.00;99.90;;;;;;4194740;28;20672;-59
2023/12/29 02:01:01;;;;;;;57.10;25.20;;;-3.00;99.90;;;;;;4193727;28;20375;-59
2023/12/29 02:03:02;;;;;;;62.90;28.73;;;-2.90;99.90;;;;;;4194842;28;21123;-58
2023/12/29 02:05:04;;;;;;;56.83;25.93;;;-2.90;99.90;;;;;;4193885;28;20311;-56
2023/12/29 02:07:05;;;;;;;57.47;27.80;;;-2.90;99.90;;;;;;4195462;28;20265;-56
2023/12/29 02:09:06;;;;;;;45.83;22.47;;;-2.90;99.90;;;;;;4193853;28;20269;-58
2023/12/29 02:11:08;;;;;;;54.30;27.13;;;-2.90;99.90;;;;;;4194914;28;20403;-57
2023/12/29 02:13:09;;;;;;;56.10;27.30;;;-2.90;99.90;;;;;;4175808;28;20738;-57
2023/12/29 02:15:10;;;;;;;48.60;25.00;;;-2.90;99.90;;;;;;4194663;28;20737;-56
2023/12/29 02:17:27;;;;;;;51.33;23.50;;;-3.00;99.90;;;;;;4193886;28;20587;-59
2023/12/29 02:19:46;;;;;;;52.87;26.67;;;-3.00;99.90;;;;;;4195391;28;20277;-59
2023/12/29 02:21:47;;;;;;;54.70;23.63;;;-3.00;99.90;;;;;;4193788;28;20323;-59
2023/12/29 02:23:48;;;;;;;47.43;24.33;;;-3.00;99.90;;;;;;4194966;28;20664;-59
2023/12/29 02:25:52;;;;;;;51.53;22.37;;;-3.10;99.90;;;;;;4193028;28;20269;-57
2023/12/29 02:28:26;;;;;;;44.97;23.00;;;-3.10;99.90;;;;;;4194995;28;20327;-58
2023/12/29 02:30:50;;;;;;;39.87;20.80;;;-3.20;99.90;;;;;;4176070;28;20277;-58
2023/12/29 02:32:59;;;;;;;44.87;22.43;;;-3.20;99.90;;;;;;4194693;28;20327;-58
2023/12/29 02:35:02;;;;;;;49.00;24.90;;;-3.30;99.90;;;;;;4192936;28;20297;-58
2023/12/29 02:37:04;;;;;;;46.40;24.00;;;-3.30;99.90;;;;;;4194273;28;20265;-59
2023/12/29 02:39:05;;;;;;;45.50;24.70;;;-3.40;99.90;;;;;;4193447;28;20269;-58
2023/12/29 02:41:07;;;;;;;49.93;24.83;;;-3.40;99.90;;;;;;4194222;28;20319;-55
2023/12/29 02:43:11;;;;;;;48.77;24.87;;;-3.40;99.90;;;;;;4193150;28;20285;-57
2023/12/29 02:45:12;;;;;;;54.10;24.87;;;-3.40;99.90;;;;;;4194836;28;20262;-58
2023/12/29 02:47:13;;;;;;;48.50;25.27;;;-3.40;99.90;;;;;;4193024;28;20331;-57
2023/12/29 02:49:14;;;;;;;47.63;25.30;;;-3.40;99.90;;;;;;4194448;28;20258;-59
2023/12/29 02:51:16;;;;;;;46.37;22.57;;;-3.40;99.90;;;;;;4193756;28;20258;-55
2023/12/29 02:53:17;;;;;;;50.17;24.67;;;-3.40;99.90;;;;;;4193761;28;20261;-57
2023/12/29 02:55:18;;;;;;;44.00;23.80;;;-3.40;99.90;;;;;;4193769;28;20356;-58
2023/12/29 02:57:19;;;;;;;45.67;23.63;;;-3.30;99.90;;;;;;4193264;28;20299;-54
2023/12/29 02:59:20;;;;;;;44.40;22.43;;;-3.30;99.90;;;;;;4193802;28;20262;-58
2023/12/29 03:01:22;;;;;;;46.07;23.90;;;-3.20;99.90;;;;;;4192495;28;20368;-57
2023/12/29 03:03:23;;;;;;;50.60;24.30;;;-3.20;99.90;;;;;;4193962;28;20278;-58
2023/12/29 03:05:24;;;;;;;45.47;23.77;;;-3.20;99.90;;;;;;4191656;28;20262;-57
2023/12/29 03:07:25;;;;;;;51.07;23.50;;;-3.20;99.90;;;;;;4193143;28;20265;-57
2023/12/29 03:09:26;;;;;;;49.90;24.50;;;-3.20;99.90;;;;;;4191654;28;20342;-56
2023/12/29 03:11:27;;;;;;;45.73;23.40;;;-3.20;99.90;;;;;;4193653;28;20281;-56
2023/12/29 03:13:29;;;;;;;49.23;23.40;;;-3.20;99.90;;;;;;4191508;28;20265;-54
2023/12/29 03:15:30;;;;;;;42.90;21.77;;;-3.20;99.90;;;;;;4192178;28;20285;-58
2023/12/29 03:17:31;;;;;;;42.73;21.97;;;-3.20;99.90;;;;;;4191732;28;20274;-55
2023/12/29 03:19:32;;;;;;;46.90;22.77;;;-3.10;99.90;;;;;;4192640;28;20277;-58
2023/12/29 03:21:33;;;;;;;41.63;21.07;;;-3.20;99.90;;;;;;4191844;28;20353;-57
2023/12/29 03:23:35;;;;;;;42.53;20.27;;;-3.20;99.90;;;;;;4191757;28;20273;-56
2023/12/29 03:25:36;;;;;;;44.70;22.53;;;-3.20;99.90;;;;;;4175026;28;20678;-58
2023/12/29 03:27:37;;;;;;;40.43;21.20;;;-3.20;99.90;;;;;;4191406;28;20327;-57
2023/12/29 03:29:38;;;;;;;42.13;19.83;;;-3.20;99.90;;;;;;4193196;28;20338;-59
2023/12/29 03:31:39;;;;;;;42.30;19.87;;;-3.30;99.90;;;;;;4191133;28;20281;-56
2023/12/29 03:33:40;;;;;;;40.63;20.03;;;-3.30;99.90;;;;;;4193395;28;20363;-57
2023/12/29 03:35:42;;;;;;;44.17;20.23;;;-3.30;99.90;;;;;;4191558;28;20277;-57
2023/12/29 03:37:43;;;;;;;44.60;20.93;;;-3.30;99.90;;;;;;4192933;28;20277;-56
2023/12/29 03:39:44;;;;;;;39.60;19.50;;;-3.30;99.90;;;;;;4191957;28;20262;-57
2023/12/29 03:41:45;;;;;;;34.77;18.80;;;-3.30;99.90;;;;;;4193411;28;20265;-58
2023/12/29 03:43:47;;;;;;;37.57;19.67;;;-3.30;99.90;;;;;;4191806;28;20265;-58
2023/12/29 03:45:48;;;;;;;38.73;20.03;;;-3.30;99.90;;;;;;4192506;28;20641;-57
2023/12/29 03:47:49;;;;;;;37.43;19.30;;;-3.30;99.90;;;;;;4191761;28;20277;-57
2023/12/29 03:49:50;;;;;;;40.73;19.67;;;-3.40;99.90;;;;;;4191832;28;20307;-59
2023/12/29 03:51:51;;;;;;;36.53;18.83;;;-3.50;99.90;;;;;;4192056;28;20253;-58
2023/12/29 03:53:52;;;;;;;42.90;21.77;;;-3.50;99.90;;;;;;4191826;28;20281;-58
2023/12/29 03:55:54;;;;;;;38.70;20.57;;;-3.50;99.90;;;;;;4192482;28;20297;-59
2023/12/29 03:57:55;;;;;;;47.30;23.50;;;-3.60;99.90;;;;;;4191262;28;20273;-56
2023/12/29 03:59:56;;;;;;;40.40;21.10;;;-3.70;99.90;;;;;;4192904;28;20261;-58
2023/12/29 04:01:57;;;;;;;42.60;22.77;;;-3.70;99.90;;;;;;4190909;28;20277;-58
2023/12/29 04:03:58;;;;;;;46.07;23.33;;;-3.90;99.90;;;;;;4119018;28;2056716;-55
2023/12/29 04:05:59;;;;;;;43.60;21.73;;;-3.90;99.90;;;;;;4192190;28;20078;-56
2023/12/29 04:08:01;;;;;;;45.03;22.60;;;-4.00;99.90;;;;;;4193679;28;20269;-58
2023/12/29 04:10:04;;;;;;;51.57;25.00;;;-4.10;99.90;;;;;;4191847;28;20262;-54
2023/12/29 04:12:05;;;;;;;50.47;23.63;;;-4.10;99.90;;;;;;4193154;28;20338;-58
2023/12/29 04:14:08;;;;;;;49.87;23.83;;;-4.20;99.90;;;;;;4192690;28;20262;-58
2023/12/29 04:16:09;;;;;;;56.67;25.53;;;-4.20;99.90;;;;;;4193503;28;20292;-58
2023/12/29 04:18:11;;;;;;;56.53;25.47;;;-4.40;99.90;;;;;;4191613;28;20319;-57
2023/12/29 04:20:12;;;;;;;46.30;24.70;;;-4.40;99.90;;;;;;4193159;28;20273;-58
2023/12/29 04:22:13;;;;;;;56.37;25.17;;;-4.40;99.90;;;;;;4192050;28;20253;-58
2023/12/29 04:24:14;;;;;;;51.67;25.77;;;-4.40;99.90;;;;;;4192143;28;20307;-59
2023/12/29 04:26:15;;;;;;;51.73;26.17;;;-4.40;99.90;;;;;;4192013;28;20625;-58
2023/12/29 04:28:16;;;;;;;47.57;23.57;;;-4.40;99.90;;;;;;4191181;28;20273;-59
2023/12/29 04:30:18;;;;;;;60.40;27.33;;;-4.40;99.90;;;;;;4193328;28;20274;-59
2023/12/29 04:32:19;;;;;;;52.63;24.90;;;-4.30;99.90;;;;;;4191084;28;20281;-57
2023/12/29 04:34:20;;;;;;;47.17;25.07;;;-4.30;99.90;;;;;;4193208;28;20275;-57
2023/12/29 04:36:21;;;;;;;54.60;27.07;;;-4.20;99.90;;;;;;4191835;28;20324;-55
2023/12/29 04:38:22;;;;;;;48.07;25.60;;;-4.20;99.90;;;;;;4192911;28;20262;-56
2023/12/29 04:40:23;;;;;;;57.23;28.30;;;-4.20;99.90;;;;;;4191413;28;20315;-56
2023/12/29 04:42:25;;;;;;;62.17;28.53;;;-4.20;99.90;;;;;;4193333;28;20265;-57
2023/12/29 04:44:26;;;;;;;56.77;31.10;;;-4.20;99.90;;;;;;4191495;28;20322;-56
2023/12/29 04:46:27;;;;;;;56.33;26.60;;;-4.20;99.90;;;;;;4193337;28;20274;-58
2023/12/29 04:48:28;;;;;;;56.73;25.73;;;-4.20;99.90;;;;;;4191934;28;20265;-58
2023/12/29 04:50:29;;;;;;;47.00;24.27;;;-4.20;99.90;;;;;;4192224;28;20754;-57
2023/12/29 04:52:31;;;;;;;52.07;25.47;;;-4.20;99.90;;;;;;4192018;28;20269;-59
2023/12/29 04:54:32;;;;;;;51.97;26.07;;;-4.10;99.90;;;;;;4174056;28;20286;-58
2023/12/29 04:56:33;;;;;;;49.63;24.27;;;-4.10;99.90;;;;;;4192621;28;20762;-56
2023/12/29 04:58:34;;;;;;;49.67;24.97;;;-4.10;99.90;;;;;;4190971;28;20269;-59
2023/12/29 05:00:35;;;;;;;56.63;26.97;;;-4.00;99.90;;;;;;4192802;28;20322;-53
2023/12/29 05:02:36;;;;;;;58.77;29.30;;;-4.10;99.90;;;;;;4191196;28;20326;-59
2023/12/29 05:04:40;;;;;;;62.83;30.07;;;-4.10;99.90;;;;;;4175052;28;20323;-57
2023/12/29 05:06:41;;;;;;;64.37;30.27;;;-4.10;99.90;;;;;;4191644;28;20323;-58
2023/12/29 05:08:43;;;;;;;59.13;26.80;;;-4.10;99.90;;;;;;4192560;28;20338;-56
2023/12/29 05:10:44;;;;;;;68.43;31.23;;;-4.10;99.90;;;;;;4191406;28;20323;-58
2023/12/29 05:12:45;;;;;;;67.40;29.83;;;-4.10;99.90;;;;;;4193068;28;20273;-57
2023/12/29 05:14:46;;;;;;;64.13;28.73;;;-4.00;99.90;;;;;;4190952;28;20277;-58
2023/12/29 05:16:47;;;;;;;57.73;27.63;;;-4.00;99.90;;;;;;4192659;28;20301;-58
2023/12/29 05:18:48;;;;;;;56.17;26.57;;;-4.00;99.90;;;;;;4191627;28;21264;-58
2023/12/29 05:20:49;;;;;;;54.63;26.23;;;-4.00;99.90;;;;;;4191236;28;20406;-59
2023/12/29 05:22:51;;;;;;;67.63;30.60;;;-4.00;99.90;;;;;;4191826;28;20257;-59
2023/12/29 05:24:52;;;;;;;69.67;31.50;;;-3.90;99.90;;;;;;4192270;28;20275;-54
2023/12/29 05:26:53;;;;;;;67.13;30.80;;;-3.90;99.90;;;;;;4191760;28;20265;-58
2023/12/29 05:28:54;;;;;;;64.60;30.13;;;-4.00;99.90;;;;;;4191351;28;20269;-59
2023/12/29 05:30:56;;;;;;;60.03;28.67;;;-4.00;99.90;;;;;;4192380;28;20324;-58
2023/12/29 05:32:57;;;;;;;63.67;28.93;;;-4.00;99.90;;;;;;4191717;28;20249;-59
2023/12/29 05:34:58;;;;;;;63.83;29.27;;;-4.00;99.90;;;;;;4174183;28;20258;-60
2023/12/29 05:36:59;;;;;;;59.80;30.50;;;-4.00;99.90;;;;;;4191194;28;20755;-59
2023/12/29 05:39:01;;;;;;;60.17;27.00;;;-4.00;99.90;;;;;;4193701;28;20270;-59
2023/12/29 05:41:04;;;;;;;51.53;26.13;;;-4.00;99.90;;;;;;4193240;28;20261;-56
2023/12/29 05:43:05;;;;;;;50.93;23.40;;;-4.10;99.90;;;;;;4195435;28;20281;-56
2023/12/29 05:45:07;;;;;;;45.03;24.40;;;-4.20;99.90;;;;;;4193865;28;20269;-57
2023/12/29 05:47:09;;;;;;;55.83;25.00;;;-4.30;99.90;;;;;;4195602;28;20257;-59
2023/12/29 05:49:10;;;;;;;52.73;25.10;;;-4.30;99.90;;;;;;4193083;28;20308;-59
2023/12/29 05:51:13;;;;;;;56.83;27.17;;;-4.40;99.90;;;;;;4195492;28;20360;-59
2023/12/29 05:53:15;;;;;;;61.40;26.60;;;-4.50;99.90;;;;;;4193459;28;20284;-60
2023/12/29 05:55:16;;;;;;;61.17;27.30;;;-4.50;99.90;;;;;;4194998;28;20319;-60
2023/12/29 05:57:17;;;;;;;58.83;27.53;;;-4.50;99.90;;;;;;4193912;28;20370;-59
2023/12/29 05:59:18;;;;;;;64.60;28.50;;;-4.50;99.90;;;;;;4194096;28;20270;-60
2023/12/29 06:01:20;;;;;;;62.93;28.50;;;-4.50;99.90;;;;;;4195212;28;20307;-60
2023/12/29 06:03:21;;;;;;;56.07;27.40;;;-4.50;99.90;;;;;;4193625;28;20285;-60
2023/12/29 06:05:22;;;;;;;68.00;28.40;;;-4.50;99.90;;;;;;4194558;28;20334;-59
2023/12/29 06:07:23;;;;;;;59.13;28.07;;;-4.50;99.90;;;;;;4193290;28;20258;-60
2023/12/29 06:09:24;;;;;;;72.17;31.03;;;-4.50;99.90;;;;;;4194953;28;20315;-58
2023/12/29 06:11:25;;;;;;;61.80;31.15;;;-4.50;99.90;;;;;;4193916;28;20253;-58
2023/12/29 06:13:28;;;;;;;71.67;30.70;;;-4.50;99.90;;;;;;4195020;28;20082;-59
2023/12/29 06:15:29;;;;;;;68.50;29.23;;;-4.50;99.90;;;;;;4193804;28;20250;-58
2023/12/29 06:17:30;;;;;;;68.73;31.43;;;-4.50;99.90;;;;;;4195203;28;20305;-60
2023/12/29 06:19:32;;;;;;;58.40;29.30;;;-4.50;99.90;;;;;;4193498;28;20668;-56
2023/12/29 06:21:33;;;;;;;62.17;30.07;;;-4.40;99.90;;;;;;4195184;28;20292;-60
2023/12/29 06:23:34;;;;;;;64.23;30.70;;;-4.30;99.90;;;;;;4193639;28;20799;-58
2023/12/29 06:25:36;;;;;;;68.13;31.87;;;-4.20;99.90;;;;;;4194081;28;20836;-57
2023/12/29 06:27:38;;;;;;;77.20;33.83;;;-4.10;99.90;;;;;;4193836;28;20753;-59
2023/12/29 06:29:42;;;;;;;79.67;34.80;;;-4.10;99.90;;;;;;4194090;28;20315;-59
2023/12/29 06:31:43;;;;;;;81.50;37.27;;;-4.00;99.90;;;;;;4193957;28;20316;-60
2023/12/29 06:33:44;;;;;;;69.83;33.00;;;-3.90;99.90;;;;;;4193007;28;20410;-60
2023/12/29 06:35:46;;;;;;;74.83;35.10;;;-3.80;99.90;;;;;;4175969;28;20269;-60
2023/12/29 06:37:47;;;;;;;65.97;34.03;;;-3.70;99.90;;;;;;4192781;28;20269;-59
2023/12/29 06:39:48;;;;;;;63.70;32.20;;;-3.60;99.90;;;;;;4194881;28;20327;-58
2023/12/29 06:41:49;;;;;;;60.00;29.07;;;-3.60;99.90;;;;;;4193447;28;20277;-60
2023/12/29 06:43:50;;;;;;;57.27;29.43;;;-3.70;99.90;;;;;;4194615;28;20646;-59
2023/12/29 06:45:52;;;;;;;53.57;27.57;;;-3.90;99.90;;;;;;4192757;28;20618;-59
2023/12/29 06:47:53;;;;;;;63.30;29.73;;;-3.90;99.90;;;;;;4193657;28;20278;-59
2023/12/29 06:49:54;;;;;;;60.20;30.33;;;-4.00;99.90;;;;;;4173342;28;20270;-60
2023/12/29 06:51:55;;;;;;;52.23;27.23;;;-4.00;99.90;;;;;;4193600;28;20269;-59
2023/12/29 06:53:56;;;;;;;63.90;27.50;;;-4.00;99.90;;;;;;4192070;28;20276;-57
2023/12/29 06:55:57;;;;;;;53.07;27.43;;;-4.00;99.90;;;;;;4193572;28;20292;-59
2023/12/29 06:57:59;;;;;;;65.10;30.20;;;-4.10;99.90;;;;;;4193205;28;20273;-59
2023/12/29 07:00:00;;;;;;;62.73;30.53;;;-4.10;99.90;;;;;;4193075;28;20266;-61
2023/12/29 07:02:01;;;;;;;64.43;30.90;;;-4.00;99.90;;;;;;4193541;28;20322;-59
2023/12/29 07:04:03;;;;;;;60.67;30.13;;;-4.00;99.90;;;;;;4191972;28;20289;-59
2023/12/29 07:06:04;;;;;;;56.83;27.77;;;-4.00;99.90;;;;;;4176093;28;20312;-60
2023/12/29 07:08:05;;;;;;;55.00;29.27;;;-3.90;99.90;;;;;;4192387;28;20319;-61
2023/12/29 07:10:07;;;;;;;55.20;28.53;;;-4.00;99.90;;;;;;4176507;28;20837;-58
2023/12/29 07:12:09;;;;;;;61.87;28.17;;;-4.00;99.90;;;;;;4192684;28;20621;-58
2023/12/29 07:14:10;;;;;;;53.23;27.07;;;-3.90;99.90;;;;;;4194308;28;20338;-60
2023/12/29 07:16:12;;;;;;;53.47;28.03;;;-3.90;99.90;;;;;;4192193;28;20281;-59
2023/12/29 07:18:13;;;;;;;51.27;27.37;;;-3.70;99.90;;;;;;4194018;28;20257;-58
2023/12/29 07:20:15;;;;;;;51.70;27.30;;;-3.70;99.90;;;;;;4191444;28;20273;-58
2023/12/29 07:22:16;;;;;;;50.40;26.37;;;-3.70;99.90;;;;;;4193052;28;20327;-59
2023/12/29 07:24:17;;;;;;;55.57;26.97;;;-3.70;99.90;;;;;;4191508;28;20661;-59
2023/12/29 07:26:19;;;;;;;52.27;25.93;;;-3.70;99.90;;;;;;4193768;28;20269;-59
2023/12/29 07:28:20;;;;;;;55.70;28.00;;;-3.60;99.90;;;;;;4192531;28;20267;-58
2023/12/29 07:30:21;;;;;;;50.60;26.90;;;-3.50;99.90;;;;;;4192820;28;20740;-59
2023/12/29 07:32:22;;;;;;;59.97;30.83;;;-3.30;99.90;;;;;;4189193;28;20660;-60
2023/12/29 07:34:23;;;;;;;52.23;28.17;;;-3.10;99.90;;;;;;4192570;28;20327;-59
2023/12/29 07:36:24;;;;;;;56.83;29.33;;;-2.90;99.90;;;;;;4192955;28;20297;-59
2023/12/29 07:38:26;;;;;;;58.23;29.07;;;-2.90;99.90;;;;;;4191049;28;20274;-61
2023/12/29 07:40:27;;;;;;;56.13;30.47;;;-2.50;99.90;;;;;;4192852;28;20269;-59
2023/12/29 07:42:29;;;;;;;52.37;27.87;;;-2.00;99.90;;;;;;4191849;28;20316;-60
2023/12/29 07:44:30;;;;;;;46.73;24.73;;;-1.70;99.90;;;;;;4193954;28;20262;-60
2023/12/29 07:46:31;;;;;;;45.87;25.60;;;-1.40;99.90;;;;;;4192314;28;20620;-60
2023/12/29 07:48:33;;;;;;;48.43;25.60;;;-1.30;99.90;;;;;;4193262;28;20281;-62
2023/12/29 07:50:34;;;;;;;48.93;27.07;;;-1.20;99.90;;;;;;4192188;28;20273;-60
2023/12/29 07:52:35;;;;;;;54.67;27.53;;;-1.00;99.90;;;;;;4193463;28;20694;-59
2023/12/29 07:54:36;;;;;;;56.97;29.93;;;-1.00;99.90;;;;;;4191721;28;20269;-58
2023/12/29 07:56:37;;;;;;;41.53;23.93;;;-1.00;99.90;;;;;;4192003;28;20390;-60
2023/12/29 07:58:39;;;;;;;43.43;23.90;;;-1.10;99.90;;;;;;4191662;28;20323;-59
2023/12/29 08:00:40;;;;;;;42.83;23.47;;;-1.00;99.90;;;;;;4191117;28;20277;-60
2023/12/29 08:02:41;;;;;;;43.67;23.90;;;-0.80;99.90;;;;;;4192159;28;20261;-60
2023/12/29 08:04:42;;;;;;;37.47;21.30;;;-0.60;99.90;;;;;;4191148;28;20273;-60
2023/12/29 08:06:44;;;;;;;38.57;22.70;;;-0.40;99.90;;;;;;4192377;28;20625;-60
2023/12/29 08:08:46;;;;;;;37.97;22.40;;;-0.70;99.90;;;;;;4191616;28;20271;-59
2023/12/29 08:10:47;;;;;;;38.93;24.10;;;-0.80;99.90;;;;;;4175242;28;20340;-57
2023/12/29 08:12:48;;;;;;;42.33;23.37;;;-0.70;99.90;;;;;;4190812;28;20347;-60
2023/12/29 08:14:49;;;;;;;41.27;24.40;;;-0.50;99.90;;;;;;4193698;28;20322;-60
2023/12/29 08:16:50;;;;;;;37.27;22.40;;;-0.50;99.90;;;;;;4191732;28;20350;-60
2023/12/29 08:18:51;;;;;;;50.67;25.30;;;-0.70;99.90;;;;;;4192481;28;20265;-59
2023/12/29 08:20:53;;;;;;;38.73;24.00;;;-0.90;99.90;;;;;;4191122;28;20331;-58
2023/12/29 08:22:54;;;;;;;41.80;22.73;;;-1.00;99.90;;;;;;4192816;28;20316;-59
2023/12/29 08:24:55;;;;;;;46.87;25.53;;;-1.00;99.90;;;;;;4190817;28;20664;-58
2023/12/29 08:26:56;;;;;;;42.50;23.87;;;-0.70;99.90;;;;;;4191709;28;20815;-59
2023/12/29 08:28:57;;;;;;;33.43;20.47;;;-0.30;99.90;;;;;;4190728;28;20265;-60
2023/12/29 08:30:58;;;;;;;36.37;20.83;;;-0.20;99.90;;;;;;4192061;28;20756;-60
2023/12/29 08:33:00;;;;;;;34.00;18.87;;;-0.10;99.90;;;;;;4191574;28;20257;-60
2023/12/29 08:35:01;;;;;;;31.83;18.17;;;-0.10;99.90;;;;;;4191485;28;20249;-60
2023/12/29 08:37:02;;;;;;;35.17;18.47;;;-0.20;99.90;;;;;;4192858;28;20335;-59
2023/12/29 08:39:03;;;;;;;33.20;18.43;;;0.00;99.90;;;;;;4191490;28;20378;-60
2023/12/29 08:41:04;;;;;;;34.17;17.60;;;0.10;99.90;;;;;;4192241;28;20849;-59
2023/12/29 08:43:06;;;;;;;38.73;19.13;;;-0.10;99.90;;;;;;4190086;28;20277;-58
2023/12/29 08:45:07;;;;;;;38.50;19.87;;;-0.10;99.90;;;;;;4193599;28;20335;-60
2023/12/29 08:47:09;;;;;;;30.90;18.80;;;-0.10;99.90;;;;;;4173111;28;20372;-59
2023/12/29 08:49:10;;;;;;;30.33;18.27;;;-0.10;99.90;;;;;;4174349;28;20360;-57
2023/12/29 08:51:12;;;;;;;32.60;19.33;;;-0.10;99.90;;;;;;4191242;28;20334;-59
2023/12/29 08:53:13;;;;;;;31.43;17.77;;;-0.10;99.90;;;;;;4192059;28;20281;-60
2023/12/29 08:55:14;;;;;;;36.07;20.10;;;0.00;99.90;;;;;;4187533;28;20281;-58
2023/12/29 08:57:15;;;;;;;29.57;18.43;;;0.10;99.90;;;;;;4189052;28;20879;-60
2023/12/29 08:59:16;;;;;;;32.27;18.13;;;-0.20;99.90;;;;;;4190629;28;20281;-58
2023/12/29 09:01:18;;;;;;;33.80;20.57;;;-0.30;99.90;;;;;;4190582;28;20693;-59
2023/12/29 09:03:19;;;;;;;33.40;18.63;;;-0.30;99.90;;;;;;4190714;28;20626;-58
2023/12/29 09:05:20;;;;;;;30.37;18.53;;;-0.40;99.90;;;;;;4190205;28;20285;-58
2023/12/29 09:07:21;;;;;;;37.47;20.27;;;-0.40;99.90;;;;;;4191155;28;20273;-59
2023/12/29 09:09:23;;;;;;;33.67;19.50;;;-0.40;99.90;;;;;;4189623;28;20281;-59
2023/12/29 09:11:24;;;;;;;31.87;19.17;;;-0.40;99.90;;;;;;4192123;28;20261;-59
2023/12/29 09:13:26;;;;;;;32.20;19.53;;;-0.40;99.90;;;;;;4191923;28;20613;-58
2023/12/29 09:15:27;;;;;;;36.17;18.47;;;-0.50;99.90;;;;;;4196246;28;20338;-58
2023/12/29 09:17:29;;;;;;;37.70;21.00;;;-0.40;99.90;;;;;;4194585;28;20623;-60
2023/12/29 09:19:30;;;;;;;36.53;19.60;;;-0.40;99.90;;;;;;4194945;28;20285;-59
2023/12/29 09:21:31;;;;;;;31.33;17.90;;;-0.30;99.90;;;;;;4193792;28;20273;-59
2023/12/29 09:23:33;;;;;;;30.47;17.63;;;-0.40;99.90;;;;;;4194144;28;20323;-60
2023/12/29 09:25:34;;;;;;;33.37;17.87;;;-0.50;99.90;;;;;;4193863;28;20732;-58
2023/12/29 09:27:36;;;;;;;31.37;18.43;;;-0.60;99.90;;;;;;4194152;28;20345;-60
2023/12/29 09:29:37;;;;;;;32.33;17.37;;;-0.80;99.90;;;;;;4193415;28;20301;-60
2023/12/29 09:31:38;;;;;;;30.83;17.93;;;-0.80;99.90;;;;;;4194327;28;20595;-61
2023/12/29 09:33:39;;;;;;;35.27;17.10;;;-0.90;99.90;;;;;;4193475;28;20395;-60
2023/12/29 09:35:40;;;;;;;34.97;18.47;;;-1.00;99.90;;;;;;4193836;28;20334;-60
2023/12/29 09:37:42;;;;;;;36.70;19.10;;;-1.00;99.90;;;;;;4194220;28;20349;-60
2023/12/29 09:39:43;;;;;;;36.73;19.80;;;-1.00;99.90;;;;;;4191020;28;20308;-60
2023/12/29 09:41:47;;;;;;;41.87;20.17;;;-1.00;99.90;;;;;;4194441;28;20298;-60
2023/12/29 09:43:49;;;;;;;39.20;19.10;;;-1.00;99.90;;;;;;4192084;28;20731;-60
2023/12/29 09:45:52;;;;;;;44.33;21.60;;;-0.90;99.90;;;;;;4193448;28;20351;-60
2023/12/29 09:47:55;;;;;;;41.53;20.70;;;-0.90;99.90;;;;;;4175609;28;20320;-59
2023/12/29 09:49:56;;;;;;;38.43;20.40;;;-0.90;99.90;;;;;;4194522;28;20353;-60
2023/12/29 09:51:59;;;;;;;38.67;20.17;;;-1.00;99.90;;;;;;4192963;28;20296;-58
2023/12/29 09:54:01;;;;;;;41.73;20.07;;;-1.10;99.90;;;;;;4194487;28;20595;-62
2023/12/29 09:56:05;;;;;;;43.73;22.50;;;-1.10;99.90;;;;;;4193608;28;20356;-60
2023/12/29 09:58:08;;;;;;;49.87;22.90;;;-1.10;99.90;;;;;;4175700;28;20742;-59
2023/12/29 10:00:16;;;;;;;40.70;20.30;;;-1.00;99.90;;;;;;4193902;28;20293;-59
2023/12/29 10:02:17;;;;;;;41.90;20.50;;;-1.00;99.90;;;;;;4192997;28;20818;-60
2023/12/29 10:04:18;;;;;;;46.17;22.87;;;-1.00;99.90;;;;;;4193336;28;20277;-61
2023/12/29 10:06:26;;;;;;;44.43;22.40;;;-1.00;99.90;;;;;;4193495;28;20269;-61
2023/12/29 10:08:29;;;;;;;45.93;21.17;;;-1.00;99.90;;;;;;4193535;28;20273;-62
2023/12/29 10:10:31;;;;;;;66.53;23.23;;;-1.00;99.90;;;;;;4194108;28;20336;-61
2023/12/29 10:12:34;;;;;;;166.43;27.13;;;-1.10;99.90;;;;;;4192223;28;20278;-61
2023/12/29 10:14:53;;;;;;;231.87;28.93;;;-1.10;99.90;;;;;;4193597;28;20368;-60
2023/12/29 10:17:06;;;;;;;79.47;22.73;;;-1.10;99.90;;;;;;4193221;28;20265;-63